sensor_id;sensor_type;location;lat;lon;timestamp;temperature;humidity
23499;DHT22;11926;48.120;11.562;2023-05-07T00:02:07;13.50;95.60
23499;DHT22;11926;48.120;11.562;2023-05-07T00:04:54;13.20;99.90
23499;DHT22;11926;48.120;11.562;2023-05-07T00:07:44;13.60;99.90
23499;DHT22;11926;48.120;11.562;2023-05-07T00:10:31;13.60;99.90
23499;DHT22;11926;48.120;11.562;2023-05-07T00:13:18;13.60;99.90
23499;DHT22;11926;48.120;11.562;2023-05-07T00:16:05;13.50;99.90
23499;DHT22;11926;48.120;11.562;2023-05-07T00:18:52;13.50;99.50
23499;DHT22;11926;48.120;11.562;2023-05-07T00:21:40;13.40;94.80
23499;DHT22;11926;48.120;11.562;2023-05-07T00:24:28;13.40;94.90
23499;DHT22;11926;48.120;11.562;2023-05-07T00:27:16;13.40;95.00
23499;DHT22;11926;48.120;11.562;2023-05-07T00:30:03;13.30;95.00
23499;DHT22;11926;48.120;11.562;2023-05-07T00:32:50;13.30;95.10
23499;DHT22;11926;48.120;11.562;2023-05-07T00:35:37;13.30;95.20
23499;DHT22;11926;48.120;11.562;2023-05-07T00:38:25;13.30;95.40
23499;DHT22;11926;48.120;11.562;2023-05-07T00:41:13;13.50;99.90
23499;DHT22;11926;48.120;11.562;2023-05-07T00:44:00;13.40;99.90
23499;DHT22;11926;48.120;11.562;2023-05-07T00:46:49;13.30;99.90
23499;DHT22;11926;48.120;11.562;2023-05-07T00:49:38;13.30;99.90
23499;DHT22;11926;48.120;11.562;2023-05-07T00:52:26;13.30;99.90
23499;DHT22;11926;48.120;11.562;2023-05-07T00:55:14;13.10;99.90
23499;DHT22;11926;48.120;11.562;2023-05-07T00:58:03;13.30;99.90
23499;DHT22;11926;48.120;11.562;2023-05-07T01:00:50;13.40;98.90
23499;DHT22;11926;48.120;11.562;2023-05-07T01:03:38;13.30;99.40
23499;DHT22;11926;48.120;11.562;2023-05-07T01:06:26;13.30;99.90
23499;DHT22;11926;48.120;11.562;2023-05-07T01:12:01;13.10;95.40
23499;DHT22;11926;48.120;11.562;2023-05-07T01:14:52;13.20;95.80
23499;DHT22;11926;48.120;11.562;2023-05-07T01:17:40;13.20;95.80
23499;DHT22;11926;48.120;11.562;2023-05-07T01:20:42;13.20;95.80
23499;DHT22;11926;48.120;11.562;2023-05-07T01:23:30;13.20;95.90
23499;DHT22;11926;48.120;11.562;2023-05-07T01:26:18;13.20;95.90
23499;DHT22;11926;48.120;11.562;2023-05-07T01:29:06;13.20;95.90
23499;DHT22;11926;48.120;11.562;2023-05-07T01:31:54;13.10;95.90
23499;DHT22;11926;48.120;11.562;2023-05-07T01:34:43;13.10;95.90
23499;DHT22;11926;48.120;11.562;2023-05-07T01:37:32;13.10;95.90
23499;DHT22;11926;48.120;11.562;2023-05-07T01:40:21;13.10;95.90
23499;DHT22;11926;48.120;11.562;2023-05-07T01:43:10;13.10;95.90
23499;DHT22;11926;48.120;11.562;2023-05-07T01:45:58;13.10;96.00
23499;DHT22;11926;48.120;11.562;2023-05-07T01:48:47;13.10;96.50
23499;DHT22;11926;48.120;11.562;2023-05-07T01:51:34;13.10;96.10
23499;DHT22;11926;48.120;11.562;2023-05-07T01:54:25;13.00;96.10
23499;DHT22;11926;48.120;11.562;2023-05-07T01:57:17;13.00;96.20
23499;DHT22;11926;48.120;11.562;2023-05-07T02:00:05;12.90;96.00
23499;DHT22;11926;48.120;11.562;2023-05-07T02:03:00;12.90;96.20
23499;DHT22;11926;48.120;11.562;2023-05-07T02:05:57;12.90;96.30
23499;DHT22;11926;48.120;11.562;2023-05-07T02:08:55;12.90;96.30
23499;DHT22;11926;48.120;11.562;2023-05-07T02:11:42;12.90;96.70
23499;DHT22;11926;48.120;11.562;2023-05-07T02:14:32;12.90;96.30
23499;DHT22;11926;48.120;11.562;2023-05-07T02:17:20;12.90;96.40
23499;DHT22;11926;48.120;11.562;2023-05-07T02:20:08;12.90;96.40
23499;DHT22;11926;48.120;11.562;2023-05-07T02:23:00;12.80;96.40
23499;DHT22;11926;48.120;11.562;2023-05-07T02:25:48;12.80;96.50
23499;DHT22;11926;48.120;11.562;2023-05-07T02:28:36;12.80;96.50
23499;DHT22;11926;48.120;11.562;2023-05-07T02:31:25;12.80;96.50
23499;DHT22;11926;48.120;11.562;2023-05-07T02:34:13;12.80;96.50
23499;DHT22;11926;48.120;11.562;2023-05-07T02:37:00;12.80;96.50
23499;DHT22;11926;48.120;11.562;2023-05-07T02:39:47;12.80;96.50
23499;DHT22;11926;48.120;11.562;2023-05-07T02:42:35;12.70;96.50
23499;DHT22;11926;48.120;11.562;2023-05-07T02:45:22;12.70;96.50
23499;DHT22;11926;48.120;11.562;2023-05-07T02:48:13;12.70;96.50
23499;DHT22;11926;48.120;11.562;2023-05-07T02:51:01;12.70;96.50
23499;DHT22;11926;48.120;11.562;2023-05-07T02:53:50;12.70;96.60
23499;DHT22;11926;48.120;11.562;2023-05-07T02:56:37;12.60;96.60
23499;DHT22;11926;48.120;11.562;2023-05-07T02:59:25;12.60;96.60
23499;DHT22;11926;48.120;11.562;2023-05-07T03:02:12;12.60;96.70
23499;DHT22;11926;48.120;11.562;2023-05-07T03:05:00;12.60;96.70
23499;DHT22;11926;48.120;11.562;2023-05-07T03:07:47;12.50;96.70
23499;DHT22;11926;48.120;11.562;2023-05-07T03:10:35;12.50;97.10
23499;DHT22;11926;48.120;11.562;2023-05-07T03:13:22;12.50;96.80
23499;DHT22;11926;48.120;11.562;2023-05-07T03:16:11;12.50;96.80
23499;DHT22;11926;48.120;11.562;2023-05-07T03:18:58;12.50;96.90
23499;DHT22;11926;48.120;11.562;2023-05-07T03:21:49;12.40;96.80
23499;DHT22;11926;48.120;11.562;2023-05-07T03:24:36;12.40;96.90
23499;DHT22;11926;48.120;11.562;2023-05-07T03:27:23;12.40;96.80
23499;DHT22;11926;48.120;11.562;2023-05-07T03:30:12;12.40;96.90
23499;DHT22;11926;48.120;11.562;2023-05-07T03:32:59;12.40;96.90
23499;DHT22;11926;48.120;11.562;2023-05-07T03:35:46;12.30;97.00
23499;DHT22;11926;48.120;11.562;2023-05-07T03:38:39;12.40;97.00
23499;DHT22;11926;48.120;11.562;2023-05-07T03:41:26;12.30;97.00
23499;DHT22;11926;48.120;11.562;2023-05-07T03:44:15;12.30;97.00
23499;DHT22;11926;48.120;11.562;2023-05-07T03:47:04;12.30;97.00
23499;DHT22;11926;48.120;11.562;2023-05-07T03:49:51;12.30;97.00
23499;DHT22;11926;48.120;11.562;2023-05-07T03:52:42;12.30;96.90
23499;DHT22;11926;48.120;11.562;2023-05-07T03:55:32;12.30;96.90
23499;DHT22;11926;48.120;11.562;2023-05-07T03:58:20;12.20;96.90
23499;DHT22;11926;48.120;11.562;2023-05-07T04:01:07;12.20;96.90
23499;DHT22;11926;48.120;11.562;2023-05-07T04:03:54;12.20;96.90
23499;DHT22;11926;48.120;11.562;2023-05-07T04:06:43;12.20;96.90
23499;DHT22;11926;48.120;11.562;2023-05-07T04:09:31;12.10;96.90
23499;DHT22;11926;48.120;11.562;2023-05-07T04:12:19;12.10;96.90
23499;DHT22;11926;48.120;11.562;2023-05-07T04:15:07;12.10;96.90
23499;DHT22;11926;48.120;11.562;2023-05-07T04:17:55;12.10;97.10
23499;DHT22;11926;48.120;11.562;2023-05-07T04:20:43;12.10;97.10
23499;DHT22;11926;48.120;11.562;2023-05-07T04:23:32;12.00;97.10
23499;DHT22;11926;48.120;11.562;2023-05-07T04:26:22;12.00;97.00
23499;DHT22;11926;48.120;11.562;2023-05-07T04:29:11;12.10;97.10
23499;DHT22;11926;48.120;11.562;2023-05-07T04:31:59;12.10;97.00
23499;DHT22;11926;48.120;11.562;2023-05-07T04:34:46;12.10;97.00
23499;DHT22;11926;48.120;11.562;2023-05-07T04:37:34;12.10;97.00
23499;DHT22;11926;48.120;11.562;2023-05-07T04:40:22;12.20;97.10
23499;DHT22;11926;48.120;11.562;2023-05-07T04:43:10;12.20;97.10
23499;DHT22;11926;48.120;11.562;2023-05-07T04:46:04;12.30;97.10
23499;DHT22;11926;48.120;11.562;2023-05-07T04:48:52;12.30;97.00
23499;DHT22;11926;48.120;11.562;2023-05-07T04:51:40;12.40;97.10
23499;DHT22;11926;48.120;11.562;2023-05-07T04:54:31;12.50;97.40
23499;DHT22;11926;48.120;11.562;2023-05-07T04:57:18;12.60;97.10
23499;DHT22;11926;48.120;11.562;2023-05-07T05:00:07;12.60;97.00
23499;DHT22;11926;48.120;11.562;2023-05-07T05:02:59;12.70;97.00
23499;DHT22;11926;48.120;11.562;2023-05-07T05:05:49;12.70;97.00
23499;DHT22;11926;48.120;11.562;2023-05-07T05:08:39;12.80;97.00
23499;DHT22;11926;48.120;11.562;2023-05-07T05:11:28;12.80;96.90
23499;DHT22;11926;48.120;11.562;2023-05-07T05:14:14;12.80;96.90
23499;DHT22;11926;48.120;11.562;2023-05-07T05:17:01;12.90;97.00
23499;DHT22;11926;48.120;11.562;2023-05-07T05:19:50;12.90;97.00
23499;DHT22;11926;48.120;11.562;2023-05-07T05:22:37;13.00;97.10
23499;DHT22;11926;48.120;11.562;2023-05-07T05:25:26;13.10;97.10
23499;DHT22;11926;48.120;11.562;2023-05-07T05:28:15;13.20;97.00
23499;DHT22;11926;48.120;11.562;2023-05-07T05:31:02;13.30;97.10
23499;DHT22;11926;48.120;11.562;2023-05-07T05:33:53;13.40;96.90
23499;DHT22;11926;48.120;11.562;2023-05-07T05:36:43;13.50;97.00
23499;DHT22;11926;48.120;11.562;2023-05-07T05:39:32;13.70;97.00
23499;DHT22;11926;48.120;11.562;2023-05-07T05:42:20;13.80;96.80
23499;DHT22;11926;48.120;11.562;2023-05-07T05:45:08;14.00;96.90
23499;DHT22;11926;48.120;11.562;2023-05-07T05:47:57;14.10;96.70
23499;DHT22;11926;48.120;11.562;2023-05-07T05:50:45;14.30;96.40
23499;DHT22;11926;48.120;11.562;2023-05-07T05:53:36;14.40;96.30
23499;DHT22;11926;48.120;11.562;2023-05-07T05:56:24;14.50;96.10
23499;DHT22;11926;48.120;11.562;2023-05-07T05:59:11;14.60;96.00
23499;DHT22;11926;48.120;11.562;2023-05-07T06:01:59;14.80;95.90
23499;DHT22;11926;48.120;11.562;2023-05-07T06:04:47;14.90;95.80
23499;DHT22;11926;48.120;11.562;2023-05-07T06:07:37;15.00;95.70
23499;DHT22;11926;48.120;11.562;2023-05-07T06:10:26;15.20;95.80
23499;DHT22;11926;48.120;11.562;2023-05-07T06:13:13;15.40;95.10
23499;DHT22;11926;48.120;11.562;2023-05-07T06:16:01;15.50;94.90
23499;DHT22;11926;48.120;11.562;2023-05-07T06:18:48;15.70;94.40
23499;DHT22;11926;48.120;11.562;2023-05-07T06:21:35;15.80;94.40
23499;DHT22;11926;48.120;11.562;2023-05-07T06:24:23;16.00;94.30
23499;DHT22;11926;48.120;11.562;2023-05-07T06:27:13;16.20;94.00
23499;DHT22;11926;48.120;11.562;2023-05-07T06:30:01;16.30;93.60
23499;DHT22;11926;48.120;11.562;2023-05-07T06:32:49;16.50;93.20
23499;DHT22;11926;48.120;11.562;2023-05-07T06:35:37;16.70;93.00
23499;DHT22;11926;48.120;11.562;2023-05-07T06:38:24;16.90;92.60
23499;DHT22;11926;48.120;11.562;2023-05-07T06:41:12;17.10;92.20
23499;DHT22;11926;48.120;11.562;2023-05-07T06:44:01;17.40;91.90
23499;DHT22;11926;48.120;11.562;2023-05-07T06:46:55;17.60;91.40
23499;DHT22;11926;48.120;11.562;2023-05-07T06:49:42;17.70;91.00
23499;DHT22;11926;48.120;11.562;2023-05-07T06:52:33;17.90;90.70
23499;DHT22;11926;48.120;11.562;2023-05-07T06:55:23;18.10;90.40
23499;DHT22;11926;48.120;11.562;2023-05-07T06:58:12;18.30;90.00
23499;DHT22;11926;48.120;11.562;2023-05-07T07:01:01;18.50;89.20
23499;DHT22;11926;48.120;11.562;2023-05-07T07:03:50;18.80;89.20
23499;DHT22;11926;48.120;11.562;2023-05-07T07:06:39;19.00;87.10
23499;DHT22;11926;48.120;11.562;2023-05-07T07:09:29;19.10;86.00
23499;DHT22;11926;48.120;11.562;2023-05-07T07:12:18;19.30;86.20
23499;DHT22;11926;48.120;11.562;2023-05-07T07:15:07;19.50;84.50
23499;DHT22;11926;48.120;11.562;2023-05-07T07:17:55;19.70;83.60
23499;DHT22;11926;48.120;11.562;2023-05-07T07:20:43;19.80;83.10
23499;DHT22;11926;48.120;11.562;2023-05-07T07:23:32;20.00;81.80
23499;DHT22;11926;48.120;11.562;2023-05-07T07:26:19;20.20;81.70
23499;DHT22;11926;48.120;11.562;2023-05-07T07:29:07;20.50;80.90
23499;DHT22;11926;48.120;11.562;2023-05-07T07:31:55;20.80;79.60
23499;DHT22;11926;48.120;11.562;2023-05-07T07:34:44;21.00;78.80
23499;DHT22;11926;48.120;11.562;2023-05-07T07:37:32;21.30;77.20
23499;DHT22;11926;48.120;11.562;2023-05-07T07:43:07;21.90;74.40
23499;DHT22;11926;48.120;11.562;2023-05-07T07:45:55;22.40;72.50
23499;DHT22;11926;48.120;11.562;2023-05-07T07:48:43;23.00;69.40
23499;DHT22;11926;48.120;11.562;2023-05-07T07:51:32;23.70;67.40
23499;DHT22;11926;48.120;11.562;2023-05-07T07:54:19;25.30;63.40
23499;DHT22;11926;48.120;11.562;2023-05-07T07:57:07;25.50;61.00
23499;DHT22;11926;48.120;11.562;2023-05-07T07:59:55;26.30;59.10
23499;DHT22;11926;48.120;11.562;2023-05-07T08:02:42;27.40;57.10
23499;DHT22;11926;48.120;11.562;2023-05-07T08:05:38;28.50;54.40
23499;DHT22;11926;48.120;11.562;2023-05-07T08:08:27;29.50;52.30
23499;DHT22;11926;48.120;11.562;2023-05-07T08:11:14;30.40;50.40
23499;DHT22;11926;48.120;11.562;2023-05-07T08:14:02;31.20;48.10
23499;DHT22;11926;48.120;11.562;2023-05-07T08:16:49;32.00;47.00
23499;DHT22;11926;48.120;11.562;2023-05-07T08:19:36;32.80;45.00
23499;DHT22;11926;48.120;11.562;2023-05-07T08:22:26;33.00;43.50
23499;DHT22;11926;48.120;11.562;2023-05-07T08:25:15;33.20;42.80
23499;DHT22;11926;48.120;11.562;2023-05-07T08:28:02;33.80;42.60
23499;DHT22;11926;48.120;11.562;2023-05-07T08:30:51;33.90;40.40
23499;DHT22;11926;48.120;11.562;2023-05-07T08:33:38;33.90;40.90
23499;DHT22;11926;48.120;11.562;2023-05-07T08:36:26;33.90;40.00
23499;DHT22;11926;48.120;11.562;2023-05-07T08:39:15;33.70;40.00
23499;DHT22;11926;48.120;11.562;2023-05-07T08:42:07;34.10;39.90
23499;DHT22;11926;48.120;11.562;2023-05-07T08:44:57;34.70;37.60
23499;DHT22;11926;48.120;11.562;2023-05-07T08:47:50;34.20;37.00
23499;DHT22;11926;48.120;11.562;2023-05-07T08:50:40;33.50;38.10
23499;DHT22;11926;48.120;11.562;2023-05-07T08:53:29;33.50;39.20
23499;DHT22;11926;48.120;11.562;2023-05-07T08:56:17;33.90;38.80
23499;DHT22;11926;48.120;11.562;2023-05-07T08:59:10;34.50;38.00
23499;DHT22;11926;48.120;11.562;2023-05-07T09:01:58;35.10;35.80
23499;DHT22;11926;48.120;11.562;2023-05-07T09:04:45;35.00;36.00
23499;DHT22;11926;48.120;11.562;2023-05-07T09:07:33;35.10;35.40
23499;DHT22;11926;48.120;11.562;2023-05-07T09:10:23;34.70;36.10
23499;DHT22;11926;48.120;11.562;2023-05-07T09:13:12;34.80;36.70
23499;DHT22;11926;48.120;11.562;2023-05-07T09:16:12;35.00;36.60
23499;DHT22;11926;48.120;11.562;2023-05-07T09:19:03;35.30;36.40
23499;DHT22;11926;48.120;11.562;2023-05-07T09:21:58;34.90;35.60
23499;DHT22;11926;48.120;11.562;2023-05-07T09:24:52;34.70;36.20
23499;DHT22;11926;48.120;11.562;2023-05-07T09:27:43;34.70;35.40
23499;DHT22;11926;48.120;11.562;2023-05-07T09:30:31;34.70;34.50
23499;DHT22;11926;48.120;11.562;2023-05-07T09:33:27;34.60;35.20
23499;DHT22;11926;48.120;11.562;2023-05-07T09:36:16;34.40;34.90
23499;DHT22;11926;48.120;11.562;2023-05-07T09:39:05;33.80;35.20
23499;DHT22;11926;48.120;11.562;2023-05-07T09:41:52;33.50;35.90
23499;DHT22;11926;48.120;11.562;2023-05-07T09:44:49;33.70;36.20
23499;DHT22;11926;48.120;11.562;2023-05-07T09:47:42;33.90;37.80
23499;DHT22;11926;48.120;11.562;2023-05-07T09:50:36;34.00;36.70
23499;DHT22;11926;48.120;11.562;2023-05-07T09:53:29;33.60;35.80
23499;DHT22;11926;48.120;11.562;2023-05-07T09:56:20;32.90;37.70
23499;DHT22;11926;48.120;11.562;2023-05-07T09:59:10;32.80;36.40
23499;DHT22;11926;48.120;11.562;2023-05-07T10:02:00;32.10;37.30
23499;DHT22;11926;48.120;11.562;2023-05-07T10:04:54;31.40;39.00
23499;DHT22;11926;48.120;11.562;2023-05-07T10:07:48;31.10;40.10
23499;DHT22;11926;48.120;11.562;2023-05-07T10:10:40;30.60;39.40
23499;DHT22;11926;48.120;11.562;2023-05-07T10:13:31;29.70;41.30
23499;DHT22;11926;48.120;11.562;2023-05-07T10:16:21;28.90;42.10
23499;DHT22;11926;48.120;11.562;2023-05-07T10:19:09;28.10;45.70
23499;DHT22;11926;48.120;11.562;2023-05-07T10:22:02;28.00;46.10
23499;DHT22;11926;48.120;11.562;2023-05-07T10:24:59;27.90;45.40
23499;DHT22;11926;48.120;11.562;2023-05-07T10:27:53;27.50;45.50
23499;DHT22;11926;48.120;11.562;2023-05-07T10:30:52;26.90;47.20
23499;DHT22;11926;48.120;11.562;2023-05-07T10:33:46;26.60;48.90
23499;DHT22;11926;48.120;11.562;2023-05-07T10:36:37;26.40;48.80
23499;DHT22;11926;48.120;11.562;2023-05-07T10:39:27;26.30;48.50
23499;DHT22;11926;48.120;11.562;2023-05-07T10:42:17;26.30;51.10
23499;DHT22;11926;48.120;11.562;2023-05-07T10:45:13;26.30;49.20
23499;DHT22;11926;48.120;11.562;2023-05-07T10:48:10;26.40;49.30
23499;DHT22;11926;48.120;11.562;2023-05-07T10:51:20;26.30;49.90
23499;DHT22;11926;48.120;11.562;2023-05-07T10:54:22;26.10;48.50
23499;DHT22;11926;48.120;11.562;2023-05-07T10:57:36;25.80;49.00
23499;DHT22;11926;48.120;11.562;2023-05-07T11:00:45;25.60;49.50
23499;DHT22;11926;48.120;11.562;2023-05-07T11:07:20;25.40;53.50
23499;DHT22;11926;48.120;11.562;2023-05-07T11:10:09;25.50;51.60
23499;DHT22;11926;48.120;11.562;2023-05-07T11:13:08;25.50;51.30
23499;DHT22;11926;48.120;11.562;2023-05-07T11:16:04;25.40;51.50
23499;DHT22;11926;48.120;11.562;2023-05-07T11:18:58;25.40;51.70
23499;DHT22;11926;48.120;11.562;2023-05-07T11:21:52;25.40;51.60
23499;DHT22;11926;48.120;11.562;2023-05-07T11:24:54;25.30;52.10
23499;DHT22;11926;48.120;11.562;2023-05-07T11:27:42;25.30;52.20
23499;DHT22;11926;48.120;11.562;2023-05-07T11:30:32;25.40;52.90
23499;DHT22;11926;48.120;11.562;2023-05-07T11:33:19;25.50;51.90
23499;DHT22;11926;48.120;11.562;2023-05-07T11:36:09;25.50;50.60
23499;DHT22;11926;48.120;11.562;2023-05-07T11:39:03;25.40;51.10
23499;DHT22;11926;48.120;11.562;2023-05-07T11:41:51;25.20;51.60
23499;DHT22;11926;48.120;11.562;2023-05-07T11:44:42;25.30;52.60
23499;DHT22;11926;48.120;11.562;2023-05-07T11:47:48;25.30;53.00
23499;DHT22;11926;48.120;11.562;2023-05-07T11:50:35;25.30;53.90
23499;DHT22;11926;48.120;11.562;2023-05-07T11:53:25;25.30;53.00
23499;DHT22;11926;48.120;11.562;2023-05-07T11:56:14;25.20;54.20
23499;DHT22;11926;48.120;11.562;2023-05-07T11:59:01;25.20;53.00
23499;DHT22;11926;48.120;11.562;2023-05-07T12:01:49;25.20;52.60
23499;DHT22;11926;48.120;11.562;2023-05-07T12:04:38;25.30;51.70
23499;DHT22;11926;48.120;11.562;2023-05-07T12:07:25;25.30;51.40
23499;DHT22;11926;48.120;11.562;2023-05-07T12:10:13;25.10;51.30
23499;DHT22;11926;48.120;11.562;2023-05-07T12:13:00;25.10;52.60
23499;DHT22;11926;48.120;11.562;2023-05-07T12:15:50;25.00;52.50
23499;DHT22;11926;48.120;11.562;2023-05-07T12:18:38;25.20;53.20
23499;DHT22;11926;48.120;11.562;2023-05-07T12:21:26;25.40;53.60
23499;DHT22;11926;48.120;11.562;2023-05-07T12:24:14;25.50;52.20
23499;DHT22;11926;48.120;11.562;2023-05-07T12:27:01;25.50;52.10
23499;DHT22;11926;48.120;11.562;2023-05-07T12:29:50;25.40;51.60
23499;DHT22;11926;48.120;11.562;2023-05-07T12:32:37;25.30;51.80
23499;DHT22;11926;48.120;11.562;2023-05-07T12:35:28;25.30;52.00
23499;DHT22;11926;48.120;11.562;2023-05-07T12:38:17;25.40;53.20
23499;DHT22;11926;48.120;11.562;2023-05-07T12:41:06;25.40;52.30
23499;DHT22;11926;48.120;11.562;2023-05-07T12:43:57;25.60;52.00
23499;DHT22;11926;48.120;11.562;2023-05-07T12:46:44;25.70;50.60
23499;DHT22;11926;48.120;11.562;2023-05-07T12:49:35;25.50;51.60
23499;DHT22;11926;48.120;11.562;2023-05-07T12:52:24;25.50;51.00
23499;DHT22;11926;48.120;11.562;2023-05-07T12:55:15;25.50;51.20
23499;DHT22;11926;48.120;11.562;2023-05-07T12:58:02;25.50;52.30
23499;DHT22;11926;48.120;11.562;2023-05-07T13:00:50;25.40;51.30
23499;DHT22;11926;48.120;11.562;2023-05-07T13:03:38;25.30;50.30
23499;DHT22;11926;48.120;11.562;2023-05-07T13:06:25;25.20;51.10
23499;DHT22;11926;48.120;11.562;2023-05-07T13:09:13;25.30;52.30
23499;DHT22;11926;48.120;11.562;2023-05-07T13:12:02;25.40;51.30
23499;DHT22;11926;48.120;11.562;2023-05-07T13:14:49;25.50;50.90
23499;DHT22;11926;48.120;11.562;2023-05-07T13:17:36;25.60;51.60
23499;DHT22;11926;48.120;11.562;2023-05-07T13:20:23;25.70;50.00
23499;DHT22;11926;48.120;11.562;2023-05-07T13:23:11;25.60;50.70
23499;DHT22;11926;48.120;11.562;2023-05-07T13:25:57;25.60;50.00
23499;DHT22;11926;48.120;11.562;2023-05-07T13:28:52;25.50;50.10
23499;DHT22;11926;48.120;11.562;2023-05-07T13:31:40;25.50;49.70
23499;DHT22;11926;48.120;11.562;2023-05-07T13:34:30;25.50;48.90
23499;DHT22;11926;48.120;11.562;2023-05-07T13:37:17;25.40;49.20
23499;DHT22;11926;48.120;11.562;2023-05-07T13:40:07;25.50;49.10
23499;DHT22;11926;48.120;11.562;2023-05-07T13:42:57;25.40;49.10
23499;DHT22;11926;48.120;11.562;2023-05-07T13:45:46;25.30;48.80
23499;DHT22;11926;48.120;11.562;2023-05-07T13:48:33;25.30;48.50
23499;DHT22;11926;48.120;11.562;2023-05-07T13:51:21;25.40;48.30
23499;DHT22;11926;48.120;11.562;2023-05-07T13:54:08;25.50;49.70
23499;DHT22;11926;48.120;11.562;2023-05-07T13:56:55;25.70;49.50
23499;DHT22;11926;48.120;11.562;2023-05-07T13:59:42;26.00;48.40
23499;DHT22;11926;48.120;11.562;2023-05-07T14:02:31;26.10;48.10
23499;DHT22;11926;48.120;11.562;2023-05-07T14:05:19;26.20;48.80
23499;DHT22;11926;48.120;11.562;2023-05-07T14:08:07;26.40;48.20
23499;DHT22;11926;48.120;11.562;2023-05-07T14:10:55;26.50;47.40
23499;DHT22;11926;48.120;11.562;2023-05-07T14:13:42;26.40;46.80
23499;DHT22;11926;48.120;11.562;2023-05-07T14:16:29;26.30;46.00
23499;DHT22;11926;48.120;11.562;2023-05-07T14:19:18;26.00;48.10
23499;DHT22;11926;48.120;11.562;2023-05-07T14:22:06;26.00;48.80
23499;DHT22;11926;48.120;11.562;2023-05-07T14:24:53;26.10;49.00
23499;DHT22;11926;48.120;11.562;2023-05-07T14:27:59;26.10;47.70
23499;DHT22;11926;48.120;11.562;2023-05-07T14:30:47;25.90;47.50
23499;DHT22;11926;48.120;11.562;2023-05-07T14:33:34;25.60;47.50
23499;DHT22;11926;48.120;11.562;2023-05-07T14:36:22;25.40;48.50
23499;DHT22;11926;48.120;11.562;2023-05-07T14:39:12;25.40;48.40
23499;DHT22;11926;48.120;11.562;2023-05-07T14:41:59;25.40;48.30
23499;DHT22;11926;48.120;11.562;2023-05-07T14:44:46;25.40;50.90
23499;DHT22;11926;48.120;11.562;2023-05-07T14:47:34;25.60;51.50
23499;DHT22;11926;48.120;11.562;2023-05-07T14:50:22;25.70;50.10
23499;DHT22;11926;48.120;11.562;2023-05-07T14:53:10;25.60;49.20
23499;DHT22;11926;48.120;11.562;2023-05-07T14:55:57;25.30;49.50
23499;DHT22;11926;48.120;11.562;2023-05-07T14:58:47;25.00;50.20
23499;DHT22;11926;48.120;11.562;2023-05-07T15:01:34;24.80;52.00
23499;DHT22;11926;48.120;11.562;2023-05-07T15:04:23;24.60;51.40
23499;DHT22;11926;48.120;11.562;2023-05-07T15:07:11;24.40;51.80
23499;DHT22;11926;48.120;11.562;2023-05-07T15:10:02;24.30;53.10
23499;DHT22;11926;48.120;11.562;2023-05-07T15:12:49;24.40;53.50
23499;DHT22;11926;48.120;11.562;2023-05-07T15:15:36;24.40;53.20
23499;DHT22;11926;48.120;11.562;2023-05-07T15:18:24;24.20;53.10
23499;DHT22;11926;48.120;11.562;2023-05-07T15:21:11;24.10;53.60
23499;DHT22;11926;48.120;11.562;2023-05-07T15:23:59;24.10;53.40
23499;DHT22;11926;48.120;11.562;2023-05-07T15:26:48;24.00;54.70
23499;DHT22;11926;48.120;11.562;2023-05-07T15:29:35;23.90;54.10
23499;DHT22;11926;48.120;11.562;2023-05-07T15:32:23;23.90;54.20
23499;DHT22;11926;48.120;11.562;2023-05-07T15:35:11;23.80;54.60
23499;DHT22;11926;48.120;11.562;2023-05-07T15:37:58;23.70;55.10
23499;DHT22;11926;48.120;11.562;2023-05-07T15:40:47;23.80;54.50
23499;DHT22;11926;48.120;11.562;2023-05-07T15:43:44;23.60;54.20
23499;DHT22;11926;48.120;11.562;2023-05-07T15:46:32;23.50;55.20
23499;DHT22;11926;48.120;11.562;2023-05-07T15:49:19;23.40;55.90
23499;DHT22;11926;48.120;11.562;2023-05-07T15:52:07;23.30;55.30
23499;DHT22;11926;48.120;11.562;2023-05-07T15:54:58;23.20;55.70
23499;DHT22;11926;48.120;11.562;2023-05-07T15:57:46;23.10;55.40
23499;DHT22;11926;48.120;11.562;2023-05-07T16:00:34;23.00;55.40
23499;DHT22;11926;48.120;11.562;2023-05-07T16:03:22;22.90;55.30
23499;DHT22;11926;48.120;11.562;2023-05-07T16:06:10;22.70;55.50
23499;DHT22;11926;48.120;11.562;2023-05-07T16:08:57;22.60;55.60
23499;DHT22;11926;48.120;11.562;2023-05-07T16:11:45;22.40;55.90
23499;DHT22;11926;48.120;11.562;2023-05-07T16:14:32;22.30;55.80
23499;DHT22;11926;48.120;11.562;2023-05-07T16:17:21;22.20;56.20
23499;DHT22;11926;48.120;11.562;2023-05-07T16:20:10;22.20;55.90
23499;DHT22;11926;48.120;11.562;2023-05-07T16:22:58;22.20;56.00
23499;DHT22;11926;48.120;11.562;2023-05-07T16:25:45;22.20;56.00
23499;DHT22;11926;48.120;11.562;2023-05-07T16:28:32;22.20;55.90
23499;DHT22;11926;48.120;11.562;2023-05-07T16:31:19;22.20;56.40
23499;DHT22;11926;48.120;11.562;2023-05-07T16:34:08;22.10;56.10
23499;DHT22;11926;48.120;11.562;2023-05-07T16:36:56;22.20;55.80
23499;DHT22;11926;48.120;11.562;2023-05-07T16:39:43;22.10;55.90
23499;DHT22;11926;48.120;11.562;2023-05-07T16:42:30;22.10;55.60
23499;DHT22;11926;48.120;11.562;2023-05-07T16:45:18;22.00;55.40
23499;DHT22;11926;48.120;11.562;2023-05-07T16:48:06;21.90;55.80
23499;DHT22;11926;48.120;11.562;2023-05-07T16:50:55;21.80;55.90
23499;DHT22;11926;48.120;11.562;2023-05-07T16:53:44;21.80;56.00
23499;DHT22;11926;48.120;11.562;2023-05-07T16:56:31;21.70;56.10
23499;DHT22;11926;48.120;11.562;2023-05-07T16:59:18;21.60;56.20
23499;DHT22;11926;48.120;11.562;2023-05-07T17:02:06;21.50;56.40
23499;DHT22;11926;48.120;11.562;2023-05-07T17:04:53;21.50;56.70
23499;DHT22;11926;48.120;11.562;2023-05-07T17:07:42;21.50;57.80
23499;DHT22;11926;48.120;11.562;2023-05-07T17:10:29;21.50;58.00
23499;DHT22;11926;48.120;11.562;2023-05-07T17:13:16;21.40;57.60
23499;DHT22;11926;48.120;11.562;2023-05-07T17:16:04;21.40;57.50
23499;DHT22;11926;48.120;11.562;2023-05-07T17:18:51;21.30;57.60
23499;DHT22;11926;48.120;11.562;2023-05-07T17:21:38;21.30;57.70
23499;DHT22;11926;48.120;11.562;2023-05-07T17:24:27;21.20;57.60
23499;DHT22;11926;48.120;11.562;2023-05-07T17:27:14;21.20;58.30
23499;DHT22;11926;48.120;11.562;2023-05-07T17:30:02;21.20;58.20
23499;DHT22;11926;48.120;11.562;2023-05-07T17:32:49;21.20;58.20
23499;DHT22;11926;48.120;11.562;2023-05-07T17:35:36;21.20;58.40
23499;DHT22;11926;48.120;11.562;2023-05-07T17:38:23;21.10;58.40
23499;DHT22;11926;48.120;11.562;2023-05-07T17:41:12;21.10;58.50